sensor_id;sensor_type;location;lat;lon;timestamp;P1;durP1;ratioP1;P2;durP2;ratioP2
16314;SDS011;8266;52.150;4.768;2022-07-18T00:00:42;4.25;;;3.85;;
16314;SDS011;8266;52.150;4.768;2022-07-18T00:03:09;6.32;;;4.55;;
16314;SDS011;8266;52.150;4.768;2022-07-18T00:05:36;5.93;;;4.47;;
16314;SDS011;8266;52.150;4.768;2022-07-18T00:08:04;5.15;;;4.65;;
16314;SDS011;8266;52.150;4.768;2022-07-18T00:10:32;6.28;;;5.15;;
16314;SDS011;8266;52.150;4.768;2022-07-18T00:12:59;5.45;;;4.80;;
16314;SDS011;8266;52.150;4.768;2022-07-18T00:15:26;4.38;;;3.97;;
16314;SDS011;8266;52.150;4.768;2022-07-18T00:17:53;4.95;;;4.43;;
16314;SDS011;8266;52.150;4.768;2022-07-18T00:20:20;7.03;;;5.00;;
16314;SDS011;8266;52.150;4.768;2022-07-18T00:22:47;4.60;;;4.20;;
16314;SDS011;8266;52.150;4.768;2022-07-18T00:25:14;5.82;;;4.53;;
16314;SDS011;8266;52.150;4.768;2022-07-18T00:27:43;5.53;;;4.40;;
16314;SDS011;8266;52.150;4.768;2022-07-18T00:30:10;6.13;;;5.10;;
16314;SDS011;8266;52.150;4.768;2022-07-18T00:32:39;6.40;;;4.63;;
16314;SDS011;8266;52.150;4.768;2022-07-18T00:35:07;6.38;;;5.28;;
16314;SDS011;8266;52.150;4.768;2022-07-18T00:37:35;5.40;;;4.90;;
16314;SDS011;8266;52.150;4.768;2022-07-18T00:40:02;5.50;;;5.00;;
16314;SDS011;8266;52.150;4.768;2022-07-18T00:42:29;5.45;;;4.70;;
16314;SDS011;8266;52.150;4.768;2022-07-18T00:44:58;6.25;;;5.43;;
16314;SDS011;8266;52.150;4.768;2022-07-18T00:47:25;5.05;;;4.55;;
16314;SDS011;8266;52.150;4.768;2022-07-18T00:49:52;5.07;;;4.40;;
16314;SDS011;8266;52.150;4.768;2022-07-18T00:52:19;5.10;;;4.30;;
16314;SDS011;8266;52.150;4.768;2022-07-18T00:54:46;5.10;;;4.47;;
16314;SDS011;8266;52.150;4.768;2022-07-18T00:57:13;4.85;;;4.28;;
16314;SDS011;8266;52.150;4.768;2022-07-18T00:59:43;4.97;;;4.15;;
16314;SDS011;8266;52.150;4.768;2022-07-18T01:02:29;5.00;;;4.55;;
16314;SDS011;8266;52.150;4.768;2022-07-18T01:04:56;5.00;;;4.53;;
16314;SDS011;8266;52.150;4.768;2022-07-18T01:07:25;5.65;;;5.13;;
16314;SDS011;8266;52.150;4.768;2022-07-18T01:09:52;5.28;;;4.78;;
16314;SDS011;8266;52.150;4.768;2022-07-18T01:12:20;5.13;;;4.63;;
16314;SDS011;8266;52.150;4.768;2022-07-18T01:14:51;6.53;;;4.70;;
16314;SDS011;8266;52.150;4.768;2022-07-18T01:17:20;5.70;;;5.10;;
16314;SDS011;8266;52.150;4.768;2022-07-18T01:19:49;5.22;;;4.60;;
16314;SDS011;8266;52.150;4.768;2022-07-18T01:22:18;6.20;;;4.82;;
16314;SDS011;8266;52.150;4.768;2022-07-18T01:24:46;4.60;;;4.20;;
16314;SDS011;8266;52.150;4.768;2022-07-18T01:27:14;5.25;;;4.70;;
16314;SDS011;8266;52.150;4.768;2022-07-18T01:29:42;5.50;;;4.60;;
16314;SDS011;8266;52.150;4.768;2022-07-18T01:32:10;5.32;;;4.82;;
16314;SDS011;8266;52.150;4.768;2022-07-18T01:34:37;5.28;;;4.63;;
16314;SDS011;8266;52.150;4.768;2022-07-18T01:37:04;4.93;;;4.43;;
16314;SDS011;8266;52.150;4.768;2022-07-18T01:39:34;6.80;;;4.70;;
16314;SDS011;8266;52.150;4.768;2022-07-18T01:42:02;5.80;;;5.13;;
16314;SDS011;8266;52.150;4.768;2022-07-18T01:44:31;5.22;;;4.68;;
16314;SDS011;8266;52.150;4.768;2022-07-18T01:46:59;4.78;;;4.28;;
16314;SDS011;8266;52.150;4.768;2022-07-18T01:49:27;6.00;;;4.18;;
16314;SDS011;8266;52.150;4.768;2022-07-18T01:51:55;4.93;;;4.15;;
16314;SDS011;8266;52.150;4.768;2022-07-18T01:54:23;4.68;;;4.05;;
16314;SDS011;8266;52.150;4.768;2022-07-18T01:56:52;5.00;;;4.10;;
16314;SDS011;8266;52.150;4.768;2022-07-18T01:59:20;4.95;;;4.28;;
16314;SDS011;8266;52.150;4.768;2022-07-18T02:01:47;4.90;;;4.32;;
16314;SDS011;8266;52.150;4.768;2022-07-18T02:04:14;4.25;;;3.85;;
16314;SDS011;8266;52.150;4.768;2022-07-18T02:06:42;4.95;;;4.22;;
16314;SDS011;8266;52.150;4.768;2022-07-18T02:09:09;4.80;;;4.10;;
16314;SDS011;8266;52.150;4.768;2022-07-18T02:11:37;4.70;;;3.83;;
16314;SDS011;8266;52.150;4.768;2022-07-18T02:14:06;5.50;;;4.43;;
16314;SDS011;8266;52.150;4.768;2022-07-18T02:16:34;5.13;;;4.63;;
16314;SDS011;8266;52.150;4.768;2022-07-18T02:19:01;6.18;;;5.20;;
16314;SDS011;8266;52.150;4.768;2022-07-18T02:21:28;4.65;;;4.25;;
16314;SDS011;8266;52.150;4.768;2022-07-18T02:23:55;6.00;;;4.60;;
16314;SDS011;8266;52.150;4.768;2022-07-18T02:26:22;4.22;;;3.83;;
16314;SDS011;8266;52.150;4.768;2022-07-18T02:28:49;4.50;;;3.90;;
16314;SDS011;8266;52.150;4.768;2022-07-18T02:31:18;3.83;;;3.53;;
16314;SDS011;8266;52.150;4.768;2022-07-18T02:33:48;4.15;;;3.70;;
16314;SDS011;8266;52.150;4.768;2022-07-18T02:36:18;4.35;;;3.78;;
16314;SDS011;8266;52.150;4.768;2022-07-18T02:38:46;4.47;;;3.75;;
16314;SDS011;8266;52.150;4.768;2022-07-18T02:41:13;3.85;;;3.08;;
16314;SDS011;8266;52.150;4.768;2022-07-18T02:43:40;4.85;;;3.78;;
16314;SDS011;8266;52.150;4.768;2022-07-18T02:46:07;5.32;;;4.10;;
16314;SDS011;8266;52.150;4.768;2022-07-18T02:48:36;4.40;;;4.00;;
16314;SDS011;8266;52.150;4.768;2022-07-18T02:51:03;9.77;;;4.18;;
16314;SDS011;8266;52.150;4.768;2022-07-18T02:53:30;4.90;;;4.50;;
16314;SDS011;8266;52.150;4.768;2022-07-18T02:56:00;5.78;;;4.82;;
16314;SDS011;8266;52.150;4.768;2022-07-18T02:58:27;6.18;;;4.45;;
16314;SDS011;8266;52.150;4.768;2022-07-18T03:00:54;5.50;;;4.65;;
16314;SDS011;8266;52.150;4.768;2022-07-18T03:03:21;5.15;;;4.63;;
16314;SDS011;8266;52.150;4.768;2022-07-18T03:05:50;5.15;;;4.25;;
16314;SDS011;8266;52.150;4.768;2022-07-18T03:08:17;5.25;;;4.43;;
16314;SDS011;8266;52.150;4.768;2022-07-18T03:10:46;4.70;;;3.92;;
16314;SDS011;8266;52.150;4.768;2022-07-18T03:13:16;5.03;;;3.78;;
16314;SDS011;8266;52.150;4.768;2022-07-18T03:15:43;4.45;;;4.05;;
16314;SDS011;8266;52.150;4.768;2022-07-18T03:18:10;4.95;;;3.78;;
16314;SDS011;8266;52.150;4.768;2022-07-18T03:20:37;4.97;;;3.63;;
16314;SDS011;8266;52.150;4.768;2022-07-18T03:23:08;5.05;;;4.22;;
16314;SDS011;8266;52.150;4.768;2022-07-18T03:25:36;8.05;;;4.70;;
16314;SDS011;8266;52.150;4.768;2022-07-18T03:28:03;5.43;;;4.82;;
16314;SDS011;8266;52.150;4.768;2022-07-18T03:30:30;5.75;;;4.75;;
16314;SDS011;8266;52.150;4.768;2022-07-18T03:32:57;5.32;;;4.43;;
16314;SDS011;8266;52.150;4.768;2022-07-18T03:35:24;6.57;;;4.88;;
16314;SDS011;8266;52.150;4.768;2022-07-18T03:37:54;5.22;;;4.30;;
16314;SDS011;8266;52.150;4.768;2022-07-18T03:40:22;5.93;;;5.30;;
16314;SDS011;8266;52.150;4.768;2022-07-18T03:42:50;6.82;;;4.70;;
16314;SDS011;8266;52.150;4.768;2022-07-18T03:45:17;4.65;;;4.20;;
16314;SDS011;8266;52.150;4.768;2022-07-18T03:47:44;8.00;;;4.90;;
16314;SDS011;8266;52.150;4.768;2022-07-18T03:50:11;10.35;;;5.10;;
16314;SDS011;8266;52.150;4.768;2022-07-18T03:52:38;5.13;;;4.63;;
16314;SDS011;8266;52.150;4.768;2022-07-18T03:55:05;5.88;;;5.22;;
16314;SDS011;8266;52.150;4.768;2022-07-18T03:57:35;4.97;;;4.47;;
16314;SDS011;8266;52.150;4.768;2022-07-18T04:00:02;5.38;;;4.88;;
16314;SDS011;8266;52.150;4.768;2022-07-18T04:02:33;5.57;;;5.05;;
16314;SDS011;8266;52.150;4.768;2022-07-18T04:05:03;6.90;;;4.63;;
16314;SDS011;8266;52.150;4.768;2022-07-18T04:07:31;4.97;;;4.57;;
16314;SDS011;8266;52.150;4.768;2022-07-18T04:09:58;5.10;;;4.45;;
16314;SDS011;8266;52.150;4.768;2022-07-18T04:12:25;5.35;;;4.43;;
16314;SDS011;8266;52.150;4.768;2022-07-18T04:14:54;4.65;;;4.25;;
16314;SDS011;8266;52.150;4.768;2022-07-18T04:17:21;5.57;;;4.97;;
16314;SDS011;8266;52.150;4.768;2022-07-18T04:19:48;4.82;;;4.35;;
16314;SDS011;8266;52.150;4.768;2022-07-18T04:22:15;7.90;;;5.40;;
16314;SDS011;8266;52.150;4.768;2022-07-18T04:24:42;5.43;;;4.88;;
16314;SDS011;8266;52.150;4.768;2022-07-18T04:27:09;5.30;;;4.50;;
16314;SDS011;8266;52.150;4.768;2022-07-18T04:29:37;6.45;;;5.05;;
16314;SDS011;8266;52.150;4.768;2022-07-18T04:32:05;6.38;;;4.28;;
16314;SDS011;8266;52.150;4.768;2022-07-18T04:34:33;5.88;;;4.75;;
16314;SDS011;8266;52.150;4.768;2022-07-18T04:37:00;5.93;;;4.57;;
16314;SDS011;8266;52.150;4.768;2022-07-18T04:39:27;4.32;;;3.67;;
16314;SDS011;8266;52.150;4.768;2022-07-18T04:41:54;5.95;;;4.47;;
16314;SDS011;8266;52.150;4.768;2022-07-18T04:44:21;5.82;;;4.32;;
16314;SDS011;8266;52.150;4.768;2022-07-18T04:46:51;5.85;;;3.97;;
16314;SDS011;8266;52.150;4.768;2022-07-18T04:49:26;4.13;;;3.70;;
16314;SDS011;8266;52.150;4.768;2022-07-18T04:51:53;7.40;;;4.57;;
16314;SDS011;8266;52.150;4.768;2022-07-18T04:54:21;5.80;;;3.78;;
16314;SDS011;8266;52.150;4.768;2022-07-18T04:56:49;7.10;;;3.33;;
16314;SDS011;8266;52.150;4.768;2022-07-18T04:59:16;4.45;;;3.47;;
16314;SDS011;8266;52.150;4.768;2022-07-18T05:01:44;4.13;;;3.72;;
16314;SDS011;8266;52.150;4.768;2022-07-18T05:04:11;4.85;;;3.70;;
16314;SDS011;8266;52.150;4.768;2022-07-18T05:06:40;8.32;;;4.10;;
16314;SDS011;8266;52.150;4.768;2022-07-18T05:09:07;4.80;;;4.30;;
16314;SDS011;8266;52.150;4.768;2022-07-18T05:11:34;5.28;;;4.55;;
16314;SDS011;8266;52.150;4.768;2022-07-18T05:14:01;5.35;;;4.05;;
16314;SDS011;8266;52.150;4.768;2022-07-18T05:16:28;6.90;;;4.05;;
16314;SDS011;8266;52.150;4.768;2022-07-18T05:18:55;5.75;;;4.40;;
16314;SDS011;8266;52.150;4.768;2022-07-18T05:21:22;4.57;;;3.90;;
16314;SDS011;8266;52.150;4.768;2022-07-18T05:23:53;5.90;;;4.22;;
16314;SDS011;8266;52.150;4.768;2022-07-18T05:26:20;5.72;;;4.05;;
16314;SDS011;8266;52.150;4.768;2022-07-18T05:28:47;5.68;;;4.05;;
16314;SDS011;8266;52.150;4.768;2022-07-18T05:31:14;5.32;;;4.45;;
16314;SDS011;8266;52.150;4.768;2022-07-18T05:33:41;7.10;;;4.30;;
16314;SDS011;8266;52.150;4.768;2022-07-18T05:36:09;5.70;;;4.80;;
16314;SDS011;8266;52.150;4.768;2022-07-18T05:38:36;5.50;;;4.65;;
16314;SDS011;8266;52.150;4.768;2022-07-18T05:41:05;6.80;;;4.40;;
16314;SDS011;8266;52.150;4.768;2022-07-18T05:43:32;6.18;;;4.15;;
16314;SDS011;8266;52.150;4.768;2022-07-18T05:46:06;4.95;;;4.22;;
16314;SDS011;8266;52.150;4.768;2022-07-18T05:48:34;5.40;;;3.88;;
16314;SDS011;8266;52.150;4.768;2022-07-18T05:51:01;4.65;;;4.18;;
16314;SDS011;8266;52.150;4.768;2022-07-18T05:53:28;4.10;;;3.55;;
16314;SDS011;8266;52.150;4.768;2022-07-18T05:55:55;5.28;;;4.18;;
16314;SDS011;8266;52.150;4.768;2022-07-18T05:58:23;5.05;;;4.20;;
16314;SDS011;8266;52.150;4.768;2022-07-18T06:00:50;5.00;;;3.80;;
16314;SDS011;8266;52.150;4.768;2022-07-18T06:03:19;8.48;;;4.78;;
16314;SDS011;8266;52.150;4.768;2022-07-18T06:05:46;5.75;;;4.10;;
16314;SDS011;8266;52.150;4.768;2022-07-18T06:08:13;5.28;;;4.45;;
16314;SDS011;8266;52.150;4.768;2022-07-18T06:10:41;4.38;;;3.97;;
16314;SDS011;8266;52.150;4.768;2022-07-18T06:13:08;5.07;;;4.55;;
16314;SDS011;8266;52.150;4.768;2022-07-18T06:15:36;5.13;;;4.10;;
16314;SDS011;8266;52.150;4.768;2022-07-18T06:18:03;6.15;;;4.85;;
16314;SDS011;8266;52.150;4.768;2022-07-18T06:20:31;6.80;;;4.00;;
16314;SDS011;8266;52.150;4.768;2022-07-18T06:22:58;5.80;;;4.65;;
16314;SDS011;8266;52.150;4.768;2022-07-18T06:25:25;5.93;;;4.97;;
16314;SDS011;8266;52.150;4.768;2022-07-18T06:27:52;6.18;;;4.80;;
16314;SDS011;8266;52.150;4.768;2022-07-18T06:30:19;5.18;;;4.47;;
16314;SDS011;8266;52.150;4.768;2022-07-18T06:32:49;5.25;;;4.43;;
16314;SDS011;8266;52.150;4.768;2022-07-18T06:35:16;5.13;;;4.40;;
16314;SDS011;8266;52.150;4.768;2022-07-18T06:37:43;6.63;;;4.30;;
16314;SDS011;8266;52.150;4.768;2022-07-18T06:40:11;5.05;;;4.53;;
16314;SDS011;8266;52.150;4.768;2022-07-18T06:42:38;4.85;;;4.22;;
16314;SDS011;8266;52.150;4.768;2022-07-18T06:45:06;7.45;;;4.95;;
16314;SDS011;8266;52.150;4.768;2022-07-18T06:47:33;6.70;;;4.18;;
16314;SDS011;8266;52.150;4.768;2022-07-18T06:50:02;6.18;;;4.65;;
16314;SDS011;8266;52.150;4.768;2022-07-18T06:52:29;5.47;;;4.55;;
16314;SDS011;8266;52.150;4.768;2022-07-18T06:54:56;8.25;;;4.82;;
16314;SDS011;8266;52.150;4.768;2022-07-18T06:57:25;7.75;;;4.35;;
16314;SDS011;8266;52.150;4.768;2022-07-18T06:59:53;5.93;;;5.15;;
16314;SDS011;8266;52.150;4.768;2022-07-18T07:02:20;5.93;;;4.68;;
16314;SDS011;8266;52.150;4.768;2022-07-18T07:04:47;5.32;;;4.60;;
16314;SDS011;8266;52.150;4.768;2022-07-18T07:07:17;5.10;;;4.05;;
16314;SDS011;8266;52.150;4.768;2022-07-18T07:09:45;4.68;;;4.13;;
16314;SDS011;8266;52.150;4.768;2022-07-18T07:12:12;7.90;;;4.22;;
16314;SDS011;8266;52.150;4.768;2022-07-18T07:14:38;4.50;;;4.07;;
16314;SDS011;8266;52.150;4.768;2022-07-18T07:17:06;4.65;;;4.15;;
16314;SDS011;8266;52.150;4.768;2022-07-18T07:19:33;11.23;;;4.60;;
16314;SDS011;8266;52.150;4.768;2022-07-18T07:22:00;4.78;;;3.85;;
16314;SDS011;8266;52.150;4.768;2022-07-18T07:24:28;4.35;;;3.50;;
16314;SDS011;8266;52.150;4.768;2022-07-18T07:26:57;4.13;;;3.17;;
16314;SDS011;8266;52.150;4.768;2022-07-18T07:29:27;6.03;;;4.20;;
16314;SDS011;8266;52.150;4.768;2022-07-18T07:32:03;4.70;;;3.60;;
16314;SDS011;8266;52.150;4.768;2022-07-18T07:34:30;5.45;;;3.97;;
16314;SDS011;8266;52.150;4.768;2022-07-18T07:36:57;4.20;;;3.78;;
16314;SDS011;8266;52.150;4.768;2022-07-18T07:39:25;4.60;;;3.55;;
16314;SDS011;8266;52.150;4.768;2022-07-18T07:41:53;6.15;;;3.90;;
16314;SDS011;8266;52.150;4.768;2022-07-18T07:44:34;5.60;;;3.45;;
16314;SDS011;8266;52.150;4.768;2022-07-18T07:47:09;3.50;;;2.92;;
16314;SDS011;8266;52.150;4.768;2022-07-18T07:49:41;4.95;;;3.40;;
16314;SDS011;8266;52.150;4.768;2022-07-18T07:52:11;5.53;;;3.08;;
16314;SDS011;8266;52.150;4.768;2022-07-18T07:54:45;4.95;;;2.95;;
16314;SDS011;8266;52.150;4.768;2022-07-18T07:57:24;3.15;;;2.80;;
16314;SDS011;8266;52.150;4.768;2022-07-18T07:59:54;3.53;;;2.70;;
16314;SDS011;8266;52.150;4.768;2022-07-18T08:02:21;4.05;;;2.85;;
16314;SDS011;8266;52.150;4.768;2022-07-18T08:04:56;2.90;;;2.67;;
16314;SDS011;8266;52.150;4.768;2022-07-18T08:07:27;5.55;;;3.20;;
16314;SDS011;8266;52.150;4.768;2022-07-18T08:09:55;4.63;;;2.55;;
16314;SDS011;8266;52.150;4.768;2022-07-18T08:12:24;5.07;;;3.20;;
16314;SDS011;8266;52.150;4.768;2022-07-18T08:14:51;5.65;;;2.80;;
16314;SDS011;8266;52.150;4.768;2022-07-18T08:17:19;3.80;;;2.88;;
16314;SDS011;8266;52.150;4.768;2022-07-18T08:19:49;5.68;;;3.78;;
16314;SDS011;8266;52.150;4.768;2022-07-18T08:22:16;4.90;;;3.20;;
16314;SDS011;8266;52.150;4.768;2022-07-18T08:24:44;4.43;;;2.63;;
16314;SDS011;8266;52.150;4.768;2022-07-18T08:27:11;4.35;;;2.38;;
16314;SDS011;8266;52.150;4.768;2022-07-18T08:29:40;3.15;;;2.38;;
16314;SDS011;8266;52.150;4.768;2022-07-18T08:32:07;3.35;;;2.65;;
16314;SDS011;8266;52.150;4.768;2022-07-18T08:34:34;3.53;;;2.33;;
16314;SDS011;8266;52.150;4.768;2022-07-18T08:37:01;3.60;;;2.00;;
16314;SDS011;8266;52.150;4.768;2022-07-18T08:39:28;5.78;;;2.80;;
16314;SDS011;8266;52.150;4.768;2022-07-18T08:41:56;3.40;;;2.33;;
16314;SDS011;8266;52.150;4.768;2022-07-18T08:44:26;3.33;;;2.45;;
16314;SDS011;8266;52.150;4.768;2022-07-18T08:46:57;2.92;;;2.25;;
16314;SDS011;8266;52.150;4.768;2022-07-18T08:49:26;3.63;;;2.28;;
16314;SDS011;8266;52.150;4.768;2022-07-18T08:51:53;3.13;;;2.20;;
16314;SDS011;8266;52.150;4.768;2022-07-18T08:54:27;2.13;;;1.90;;
16314;SDS011;8266;52.150;4.768;2022-07-18T08:56:57;3.20;;;2.15;;
16314;SDS011;8266;52.150;4.768;2022-07-18T08:59:24;6.70;;;2.30;;
16314;SDS011;8266;52.150;4.768;2022-07-18T09:01:53;3.75;;;1.90;;
16314;SDS011;8266;52.150;4.768;2022-07-18T09:04:35;2.78;;;1.85;;
16314;SDS011;8266;52.150;4.768;2022-07-18T09:07:04;5.18;;;2.40;;
16314;SDS011;8266;52.150;4.768;2022-07-18T09:09:33;3.35;;;2.17;;
16314;SDS011;8266;52.150;4.768;2022-07-18T09:12:02;4.15;;;2.90;;
16314;SDS011;8266;52.150;4.768;2022-07-18T09:14:35;3.58;;;2.40;;
16314;SDS011;8266;52.150;4.768;2022-07-18T09:17:06;2.00;;;1.80;;
16314;SDS011;8266;52.150;4.768;2022-07-18T09:19:37;3.90;;;1.98;;
16314;SDS011;8266;52.150;4.768;2022-07-18T09:22:13;2.88;;;2.17;;
16314;SDS011;8266;52.150;4.768;2022-07-18T09:24:49;3.25;;;2.05;;
16314;SDS011;8266;52.150;4.768;2022-07-18T09:27:22;3.45;;;2.10;;
16314;SDS011;8266;52.150;4.768;2022-07-18T09:30:08;2.10;;;1.67;;
16314;SDS011;8266;52.150;4.768;2022-07-18T09:32:37;2.38;;;1.70;;
16314;SDS011;8266;52.150;4.768;2022-07-18T09:35:08;4.35;;;1.98;;
16314;SDS011;8266;52.150;4.768;2022-07-18T09:37:37;3.65;;;1.95;;
16314;SDS011;8266;52.150;4.768;2022-07-18T09:40:16;2.40;;;2.20;;
16314;SDS011;8266;52.150;4.768;2022-07-18T09:42:45;4.85;;;2.55;;
16314;SDS011;8266;52.150;4.768;2022-07-18T09:45:29;3.53;;;2.58;;
16314;SDS011;8266;52.150;4.768;2022-07-18T09:48:04;4.00;;;2.20;;
16314;SDS011;8266;52.150;4.768;2022-07-18T09:50:35;3.03;;;2.10;;
16314;SDS011;8266;52.150;4.768;2022-07-18T09:53:11;4.50;;;2.03;;
16314;SDS011;8266;52.150;4.768;2022-07-18T09:55:46;2.58;;;2.10;;
16314;SDS011;8266;52.150;4.768;2022-07-18T09:58:22;2.75;;;2.05;;
16314;SDS011;8266;52.150;4.768;2022-07-18T10:00:59;3.63;;;2.10;;
16314;SDS011;8266;52.150;4.768;2022-07-18T10:03:34;3.80;;;2.10;;
16314;SDS011;8266;52.150;4.768;2022-07-18T10:06:05;4.07;;;2.13;;
16314;SDS011;8266;52.150;4.768;2022-07-18T10:08:33;3.30;;;2.40;;
16314;SDS011;8266;52.150;4.768;2022-07-18T10:11:01;2.83;;;2.08;;
16314;SDS011;8266;52.150;4.768;2022-07-18T10:13:31;3.40;;;2.00;;
16314;SDS011;8266;52.150;4.768;2022-07-18T10:16:00;3.08;;;1.80;;
16314;SDS011;8266;52.150;4.768;2022-07-18T10:18:34;3.63;;;1.95;;
16314;SDS011;8266;52.150;4.768;2022-07-18T10:21:03;3.80;;;2.28;;
16314;SDS011;8266;52.150;4.768;2022-07-18T10:23:35;2.90;;;1.75;;
16314;SDS011;8266;52.150;4.768;2022-07-18T10:26:11;2.65;;;2.00;;
16314;SDS011;8266;52.150;4.768;2022-07-18T10:34:28;5.65;;;2.50;;
16314;SDS011;8266;52.150;4.768;2022-07-18T10:37:10;2.88;;;2.00;;
16314;SDS011;8266;52.150;4.768;2022-07-18T10:39:38;3.80;;;2.50;;
16314;SDS011;8266;52.150;4.768;2022-07-18T10:42:20;2.10;;;1.90;;
16314;SDS011;8266;52.150;4.768;2022-07-18T10:44:49;2.10;;;1.52;;
16314;SDS011;8266;52.150;4.768;2022-07-18T10:47:18;1.65;;;1.40;;
16314;SDS011;8266;52.150;4.768;2022-07-18T10:55:27;3.38;;;1.90;;
16314;SDS011;8266;52.150;4.768;2022-07-18T10:58:15;2.97;;;1.70;;
16314;SDS011;8266;52.150;4.768;2022-07-18T11:00:44;2.67;;;1.50;;
16314;SDS011;8266;52.150;4.768;2022-07-18T11:03:29;1.30;;;1.10;;
16314;SDS011;8266;52.150;4.768;2022-07-18T11:05:56;2.70;;;1.48;;
16314;SDS011;8266;52.150;4.768;2022-07-18T11:08:25;1.73;;;1.40;;
16314;SDS011;8266;52.150;4.768;2022-07-18T11:11:02;2.10;;;1.42;;
16314;SDS011;8266;52.150;4.768;2022-07-18T11:13:31;3.58;;;1.75;;
16314;SDS011;8266;52.150;4.768;2022-07-18T11:16:01;3.42;;;1.10;;
16314;SDS011;8266;52.150;4.768;2022-07-18T11:18:30;2.60;;;1.60;;
16314;SDS011;8266;52.150;4.768;2022-07-18T11:20:58;1.70;;;1.38;;
16314;SDS011;8266;52.150;4.768;2022-07-18T11:23:28;2.38;;;1.55;;
16314;SDS011;8266;52.150;4.768;2022-07-18T11:25:57;2.03;;;1.50;;
16314;SDS011;8266;52.150;4.768;2022-07-18T11:28:25;2.53;;;1.58;;
16314;SDS011;8266;52.150;4.768;2022-07-18T11:31:00;4.28;;;1.60;;
16314;SDS011;8266;52.150;4.768;2022-07-18T11:33:29;1.85;;;1.38;;
16314;SDS011;8266;52.150;4.768;2022-07-18T11:36:02;2.53;;;1.55;;
16314;SDS011;8266;52.150;4.768;2022-07-18T11:38:32;2.03;;;1.73;;
16314;SDS011;8266;52.150;4.768;2022-07-18T11:41:00;2.95;;;1.80;;
16314;SDS011;8266;52.150;4.768;2022-07-18T11:43:29;4.53;;;1.58;;
16314;SDS011;8266;52.150;4.768;2022-07-18T11:46:00;3.22;;;2.03;;
16314;SDS011;8266;52.150;4.768;2022-07-18T11:48:31;5.82;;;1.92;;
16314;SDS011;8266;52.150;4.768;2022-07-18T11:50:59;3.10;;;1.48;;
16314;SDS011;8266;52.150;4.768;2022-07-18T11:53:26;2.63;;;1.67;;
16314;SDS011;8266;52.150;4.768;2022-07-18T11:55:55;2.45;;;1.70;;
16314;SDS011;8266;52.150;4.768;2022-07-18T11:58:22;5.50;;;1.77;;
16314;SDS011;8266;52.150;4.768;2022-07-18T12:00:51;2.05;;;1.45;;
16314;SDS011;8266;52.150;4.768;2022-07-18T12:03:25;2.85;;;1.90;;
16314;SDS011;8266;52.150;4.768;2022-07-18T12:05:55;2.40;;;1.70;;
16314;SDS011;8266;52.150;4.768;2022-07-18T12:08:26;1.92;;;1.55;;
16314;SDS011;8266;52.150;4.768;2022-07-18T12:11:08;2.30;;;1.60;;
16314;SDS011;8266;52.150;4.768;2022-07-18T12:13:45;6.40;;;1.67;;
16314;SDS011;8266;52.150;4.768;2022-07-18T12:16:21;2.10;;;1.60;;
16314;SDS011;8266;52.150;4.768;2022-07-18T12:18:56;2.08;;;1.50;;
16314;SDS011;8266;52.150;4.768;2022-07-18T12:21:37;1.90;;;1.60;;
16314;SDS011;8266;52.150;4.768;2022-07-18T12:24:25;2.47;;;2.00;;
16314;SDS011;8266;52.150;4.768;2022-07-18T12:29:57;3.65;;;1.80;;
16314;SDS011;8266;52.150;4.768;2022-07-18T12:32:28;6.00;;;2.20;;
16314;SDS011;8266;52.150;4.768;2022-07-18T12:35:02;4.30;;;2.00;;
16314;SDS011;8266;52.150;4.768;2022-07-18T12:37:30;4.22;;;2.10;;
16314;SDS011;8266;52.150;4.768;2022-07-18T12:39:58;3.83;;;1.90;;
16314;SDS011;8266;52.150;4.768;2022-07-18T12:42:31;2.33;;;1.88;;
16314;SDS011;8266;52.150;4.768;2022-07-18T12:44:59;3.30;;;1.80;;
16314;SDS011;8266;52.150;4.768;2022-07-18T12:47:27;4.00;;;1.70;;
16314;SDS011;8266;52.150;4.768;2022-07-18T12:49:54;1.67;;;1.50;;
16314;SDS011;8266;52.150;4.768;2022-07-18T12:52:22;2.38;;;1.63;;
16314;SDS011;8266;52.150;4.768;2022-07-18T12:54:50;3.08;;;1.98;;
16314;SDS011;8266;52.150;4.768;2022-07-18T12:57:17;3.70;;;1.83;;
16314;SDS011;8266;52.150;4.768;2022-07-18T12:59:47;4.70;;;1.83;;
16314;SDS011;8266;52.150;4.768;2022-07-18T13:02:15;2.83;;;1.88;;
16314;SDS011;8266;52.150;4.768;2022-07-18T13:04:43;2.92;;;1.60;;
16314;SDS011;8266;52.150;4.768;2022-07-18T13:07:10;2.20;;;1.70;;
16314;SDS011;8266;52.150;4.768;2022-07-18T13:09:37;2.40;;;1.73;;
16314;SDS011;8266;52.150;4.768;2022-07-18T13:12:04;2.45;;;1.38;;
16314;SDS011;8266;52.150;4.768;2022-07-18T13:14:34;5.93;;;1.83;;
16314;SDS011;8266;52.150;4.768;2022-07-18T13:17:03;2.10;;;1.58;;
16314;SDS011;8266;52.150;4.768;2022-07-18T13:19:30;2.08;;;1.45;;
16314;SDS011;8266;52.150;4.768;2022-07-18T13:21:58;3.30;;;1.50;;
16314;SDS011;8266;52.150;4.768;2022-07-18T13:24:28;2.35;;;1.52;;
16314;SDS011;8266;52.150;4.768;2022-07-18T13:26:55;3.08;;;1.80;;
16314;SDS011;8266;52.150;4.768;2022-07-18T13:29:22;3.05;;;1.40;;
16314;SDS011;8266;52.150;4.768;2022-07-18T13:31:49;3.38;;;2.00;;
16314;SDS011;8266;52.150;4.768;2022-07-18T13:34:18;4.05;;;1.60;;
16314;SDS011;8266;52.150;4.768;2022-07-18T13:36:50;3.75;;;1.55;;
16314;SDS011;8266;52.150;4.768;2022-07-18T13:39:18;2.08;;;1.50;;
16314;SDS011;8266;52.150;4.768;2022-07-18T13:41:45;3.28;;;1.60;;
16314;SDS011;8266;52.150;4.768;2022-07-18T13:44:13;3.30;;;1.40;;
16314;SDS011;8266;52.150;4.768;2022-07-18T13:46:40;1.83;;;1.50;;
16314;SDS011;8266;52.150;4.768;2022-07-18T13:49:08;2.72;;;1.77;;
16314;SDS011;8266;52.150;4.768;2022-07-18T13:51:38;2.15;;;1.48;;
16314;SDS011;8266;52.150;4.768;2022-07-18T13:54:07;4.32;;;1.38;;
16314;SDS011;8266;52.150;4.768;2022-07-18T13:56:34;2.40;;;1.48;;
16314;SDS011;8266;52.150;4.768;2022-07-18T13:59:01;3.08;;;1.50;;
16314;SDS011;8266;52.150;4.768;2022-07-18T14:01:28;1.60;;;1.40;;
16314;SDS011;8266;52.150;4.768;2022-07-18T14:03:56;1.80;;;1.50;;
16314;SDS011;8266;52.150;4.768;2022-07-18T14:06:23;1.95;;;1.50;;
16314;SDS011;8266;52.150;4.768;2022-07-18T14:08:51;2.15;;;1.55;;
16314;SDS011;8266;52.150;4.768;2022-07-18T14:11:19;2.00;;;1.40;;
16314;SDS011;8266;52.150;4.768;2022-07-18T14:13:46;2.33;;;1.50;;
16314;SDS011;8266;52.150;4.768;2022-07-18T14:16:13;3.83;;;1.35;;
16314;SDS011;8266;52.150;4.768;2022-07-18T14:18:43;3.30;;;1.90;;
16314;SDS011;8266;52.150;4.768;2022-07-18T14:21:10;1.88;;;1.65;;
16314;SDS011;8266;52.150;4.768;2022-07-18T14:23:36;1.88;;;1.23;;
16314;SDS011;8266;52.150;4.768;2022-07-18T14:26:08;1.50;;;1.35;;
16314;SDS011;8266;52.150;4.768;2022-07-18T14:28:35;2.10;;;1.25;;
16314;SDS011;8266;52.150;4.768;2022-07-18T14:31:02;2.05;;;1.50;;
16314;SDS011;8266;52.150;4.768;2022-07-18T14:33:29;2.10;;;1.50;;
16314;SDS011;8266;52.150;4.768;2022-07-18T14:35:59;2.35;;;1.30;;
16314;SDS011;8266;52.150;4.768;2022-07-18T14:38:28;3.65;;;1.67;;
16314;SDS011;8266;52.150;4.768;2022-07-18T14:40:55;2.90;;;1.40;;
16314;SDS011;8266;52.150;4.768;2022-07-18T14:43:23;1.90;;;1.38;;
16314;SDS011;8266;52.150;4.768;2022-07-18T14:45:50;2.47;;;1.70;;
16314;SDS011;8266;52.150;4.768;2022-07-18T14:48:18;1.90;;;1.40;;
16314;SDS011;8266;52.150;4.768;2022-07-18T14:50:45;1.58;;;1.42;;
16314;SDS011;8266;52.150;4.768;2022-07-18T14:53:12;3.00;;;1.63;;
16314;SDS011;8266;52.150;4.768;2022-07-18T14:55:39;3.90;;;1.65;;
16314;SDS011;8266;52.150;4.768;2022-07-18T14:58:08;2.72;;;1.50;;
16314;SDS011;8266;52.150;4.768;2022-07-18T15:00:37;1.55;;;1.30;;
16314;SDS011;8266;52.150;4.768;2022-07-18T15:03:04;2.47;;;1.73;;
16314;SDS011;8266;52.150;4.768;2022-07-18T15:05:32;2.33;;;1.73;;
16314;SDS011;8266;52.150;4.768;2022-07-18T15:07:59;3.50;;;1.60;;
16314;SDS011;8266;52.150;4.768;2022-07-18T15:10:26;3.33;;;1.58;;
16314;SDS011;8266;52.150;4.768;2022-07-18T15:12:53;2.45;;;1.52;;
16314;SDS011;8266;52.150;4.768;2022-07-18T15:15:22;1.67;;;1.52;;
16314;SDS011;8266;52.150;4.768;2022-07-18T15:17:53;1.40;;;1.30;;
16314;SDS011;8266;52.150;4.768;2022-07-18T15:20:23;1.60;;;1.50;;
16314;SDS011;8266;52.150;4.768;2022-07-18T15:22:51;1.90;;;1.65;;
16314;SDS011;8266;52.150;4.768;2022-07-18T15:25:18;2.05;;;1.40;;